Time;durP1;ratioP1;P1;durP2;ratioP2;P2;SDS_P1;SDS_P2;PMS_P1;PMS_P2;Temp;Humidity;BMP_temperature;BMP_pressure;BME280_temperature;BME280_humidity;BME280_pressure;Samples;Min_cycle;Max_cycle;Signal;HPM_P1;HPM_P2
2022/05/11 00:01:29;;;;;;;6.15;4.30;;;;;;;17.01;56.39;99417.88;5037273;28;20072;-66
2022/05/11 00:03:58;;;;;;;9.40;4.10;;;;;;;16.91;56.94;99421.28;5035522;28;20034;-67
2022/05/11 00:06:25;;;;;;;7.63;4.30;;;;;;;16.83;57.43;99413.06;5032033;28;20108;-68
2022/05/11 00:08:55;;;;;;;6.28;4.95;;;;;;;16.77;57.45;99405.56;5033889;28;20033;-68
2022/05/11 00:11:21;;;;;;;7.75;4.35;;;;;;;16.73;57.54;99406.75;5034736;28;20034;-68
2022/05/11 00:13:47;;;;;;;9.50;4.50;;;;;;;16.71;57.92;99403.38;5032806;28;20437;-68
2022/05/11 00:16:13;;;;;;;7.28;4.47;;;;;;;16.58;58.55;99395.53;5030470;28;20025;-67
2022/05/11 00:18:39;;;;;;;7.55;4.82;;;;;;;16.50;58.57;99392.66;5032412;28;20042;-69
2022/05/11 00:21:05;;;;;;;5.93;4.35;;;;;;;16.43;58.68;99394.94;5032596;28;20129;-68
2022/05/11 00:23:31;;;;;;;8.60;4.80;;;;;;;16.36;59.16;99391.09;5032549;28;20391;-67
2022/05/11 00:25:56;;;;;;;5.93;3.92;;;;;;;16.29;59.53;99388.09;5030727;28;20040;-68
2022/05/11 00:28:22;;;;;;;10.85;5.00;;;;;;;16.24;59.95;99389.41;5031954;28;20410;-69
2022/05/11 00:30:48;;;;;;;8.40;5.40;;;;;;;16.18;60.34;99381.91;5015255;28;20040;-69
2022/05/11 00:33:15;;;;;;;5.85;4.28;;;;;;;16.11;60.63;99384.19;5033847;28;20034;-66
2022/05/11 00:35:42;;;;;;;10.60;5.00;;;;;;;16.06;60.88;99392.53;5030905;28;20022;-67
2022/05/11 00:38:08;;;;;;;6.70;4.97;;;;;;;16.02;60.87;99391.09;5035257;28;20033;-66
2022/05/11 00:40:42;;;;;;;10.18;4.50;;;;;;;16.05;60.82;99385.53;5037459;28;20040;-67
2022/05/11 00:43:08;;;;;;;10.40;5.40;;;;;;;16.03;61.07;99392.78;5035245;28;20045;-68
2022/05/11 00:45:34;;;;;;;8.82;4.63;;;;;;;16.01;61.42;99383.22;5031549;28;20029;-68
2022/05/11 00:49:33;;;;;;;9.48;4.78;;;;;;;16.00;61.46;99386.88;5030947;28;20168;-69
2022/05/11 00:50:49;;;;;;;5.75;4.38;;;;;;;15.97;61.67;99382.63;5031870;28;20033;-67
2022/05/11 00:53:17;;;;;;;8.75;4.38;;;;;;;15.99;61.47;99378.03;5013743;28;20541;-65
2022/05/11 00:55:59;;;;;;;7.55;4.35;;;;;;;16.02;61.42;99371.63;5016662;28;20036;-66
2022/05/11 00:58:40;;;;;;;8.13;4.95;;;;;;;16.05;61.38;99366.09;5033496;28;20033;-67
2022/05/11 01:01:05;;;;;;;10.02;4.78;;;;;;;16.01;61.31;99361.97;5034313;28;20106;-66
2022/05/11 01:03:47;;;;;;;7.43;4.47;;;;;;;15.98;61.95;99355.06;5033407;28;20079;-66
2022/05/11 01:06:13;;;;;;;17.23;5.35;;;;;;;15.94;61.93;99350.13;5050875;28;20501;-67
2022/05/11 01:08:39;;;;;;;6.50;4.75;;;;;;;15.85;62.80;99343.69;5052343;28;20041;-66
2022/05/11 01:11:07;;;;;;;8.52;4.95;;;;;;;15.75;62.79;99350.69;5051147;28;20517;-68
2022/05/11 01:13:36;;;;;;;9.35;4.75;;;;;;;15.64;63.44;99338.22;5034301;28;20029;-66
2022/05/11 01:16:01;;;;;;;10.25;5.55;;;;;;;15.57;63.69;99332.53;5032806;28;20041;-69
2022/05/11 01:18:29;;;;;;;7.50;5.80;;;;;;;15.46;64.18;99324.56;5052046;28;20445;-65
2022/05/11 01:20:55;;;;;;;7.63;5.22;;;;;;;15.41;64.50;99324.06;5051955;28;20562;-66
2022/05/11 01:23:38;;;;;;;10.35;6.03;;;;;;;15.38;64.75;99324.28;5050842;28;20069;-67
2022/05/11 01:26:04;;;;;;;14.05;5.13;;;;;;;15.33;64.93;99321.97;5050345;28;20041;-67
2022/05/11 01:28:31;;;;;;;6.32;4.25;;;;;;;15.30;64.96;99318.72;5051945;28;20394;-67
2022/05/11 01:31:06;;;;;;;12.57;5.97;;;;;;;15.28;65.29;99316.16;5032353;28;20047;-68
2022/05/11 01:33:33;;;;;;;;;;;;;;;15.29;65.19;99311.72;5031293;28;20125;-67
2022/05/11 01:36:34;;;;;;;11.85;5.35;;;;;;;15.30;65.39;99316.91;5032228;28;19913;-65
2022/05/11 01:39:09;;;;;;;7.50;5.32;;;;;;;15.27;65.36;99317.13;4993943;28;20060;-66
2022/05/11 01:41:51;;;;;;;8.20;5.25;;;;;;;15.26;65.76;99310.16;5027932;28;20033;-68
2022/05/11 01:44:18;;;;;;;11.18;5.78;;;;;;;15.31;65.63;99299.16;5031499;28;20033;-67
2022/05/11 01:46:46;;;;;;;11.05;5.72;;;;;;;15.30;65.67;99305.44;5029973;28;20046;-67
2022/05/11 01:49:12;;;;;;;6.18;5.40;;;;;;;15.26;65.84;99302.19;5030034;28;20029;-67
2022/05/11 01:51:37;;;;;;;8.48;6.15;;;;;;;15.26;65.55;99296.88;5031229;28;20033;-69
2022/05/11 01:54:03;;;;;;;14.63;5.95;;;;;;;15.23;65.97;99302.38;5039457;28;20041;-69
2022/05/11 01:56:28;;;;;;;10.55;6.10;;;;;;;15.18;66.39;99300.06;5048749;28;20033;-66
2022/05/11 01:58:54;;;;;;;6.30;4.80;;;;;;;15.15;66.17;99302.13;5050181;28;20414;-67
2022/05/11 02:01:24;;;;;;;12.80;6.22;;;;;;;15.10;66.47;99293.69;5050875;28;20047;-66
2022/05/11 02:03:50;;;;;;;7.57;6.00;;;;;;;15.09;66.61;99295.50;5032564;28;20123;-67
2022/05/11 02:09:00;;;;;;;16.25;7.05;;;;;;;15.01;66.93;99292.56;5049999;28;20040;-67
2022/05/11 02:11:26;;;;;;;11.52;6.20;;;;;;;14.95;67.01;99290.38;5050156;28;20690;-68
2022/05/11 02:13:53;;;;;;;10.52;7.05;;;;;;;14.91;67.39;99281.78;5031983;28;20063;-68
2022/05/11 02:16:19;;;;;;;9.02;6.20;;;;;;;14.89;67.17;99286.38;5048610;28;20494;-67
2022/05/11 02:18:44;;;;;;;10.63;5.32;;;;;;;14.86;67.47;99277.78;5051017;28;20068;-67
2022/05/11 02:21:10;;;;;;;7.85;4.97;;;;;;;14.81;67.60;99278.97;5051429;28;20033;-68
2022/05/11 02:23:37;;;;;;;9.77;6.22;;;;;;;14.74;67.94;99275.09;5015257;28;20052;-68
2022/05/11 02:26:04;;;;;;;12.20;6.55;;;;;;;14.66;68.17;99280.13;5048846;28;20090;-67
2022/05/11 02:28:29;;;;;;;8.13;6.32;;;;;;;14.60;68.76;99273.47;5051862;28;20059;-68
2022/05/11 02:31:00;;;;;;;8.63;6.00;;;;;;;14.53;68.67;99258.97;5054267;28;20037;-67
2022/05/11 02:33:26;;;;;;;12.02;7.63;;;;;;;14.45;69.24;99266.63;5034444;28;20036;-68
2022/05/11 02:35:52;;;;;;;12.88;6.35;;;;;;;14.42;69.20;99261.53;5052342;28;20033;-68
2022/05/11 02:38:23;;;;;;;9.38;6.43;;;;;;;14.44;69.10;99264.06;5051911;28;20108;-69
2022/05/11 02:40:49;;;;;;;10.88;6.63;;;;;;;14.44;68.83;99251.66;5050671;28;20060;-69
2022/05/11 02:43:15;;;;;;;8.35;6.13;;;;;;;14.47;68.96;99253.22;5050381;28;20045;-67
2022/05/11 02:45:42;;;;;;;14.55;6.55;;;;;;;14.48;68.78;99254.94;5044151;28;20514;-67
2022/05/11 02:48:09;;;;;;;15.73;5.68;;;;;;;14.48;69.13;99254.94;5029549;28;20543;-68
2022/05/11 02:50:56;;;;;;;12.30;5.40;;;;;;;14.55;68.33;99250.91;5030642;28;20112;-67
2022/05/11 02:53:24;;;;;;;9.30;6.13;;;;;;;14.60;68.29;99254.91;5029640;28;20102;-68
2022/05/11 02:55:51;;;;;;;9.20;7.18;;;;;;;14.63;68.44;99258.28;5028218;28;20060;-68
2022/05/11 02:58:19;;;;;;;10.05;7.20;;;;;;;14.65;67.84;99256.38;5012631;28;20060;-68
2022/05/11 03:00:47;;;;;;;9.90;6.03;;;;;;;14.72;67.17;99250.50;5032237;28;20434;-68
2022/05/11 03:03:15;;;;;;;7.88;6.50;;;;;;;14.74;67.50;99245.91;5029763;28;20030;-68
2022/05/11 03:05:42;;;;;;;10.75;6.38;;;;;;;14.78;66.99;99251.81;5028511;28;20109;-69
2022/05/11 03:08:10;;;;;;;11.05;7.70;;;;;;;14.80;67.33;99245.44;5029393;28;20061;-69
2022/05/11 03:10:37;;;;;;;8.10;6.78;;;;;;;14.75;67.37;99238.81;5048808;28;20227;-69
2022/05/11 03:13:03;;;;;;;9.38;6.07;;;;;;;14.77;66.73;99243.03;5047598;28;20122;-66
2022/05/11 03:15:30;;;;;;;9.77;6.97;;;;;;;14.81;66.56;99243.63;5049412;28;20037;-67
2022/05/11 03:17:59;;;;;;;12.82;7.40;;;;;;;14.80;66.81;99237.47;5048900;28;20033;-66
2022/05/11 03:20:27;;;;;;;16.15;8.18;;;;;;;14.78;67.01;99226.13;5031734;28;20036;-70
2022/05/11 03:22:53;;;;;;;11.32;8.30;;;;;;;14.75;67.19;99234.34;5047878;28;20521;-69
2022/05/11 03:25:20;;;;;;;9.43;8.05;;;;;;;14.75;67.22;99230.84;5031698;28;20041;-68
2022/05/11 03:27:46;;;;;;;12.05;7.40;;;;;;;14.74;67.12;99229.13;5050400;28;20032;-66
2022/05/11 03:30:14;;;;;;;13.38;6.80;;;;;;;14.74;67.13;99227.34;5054770;28;20033;-67
2022/05/11 03:35:24;;;;;;;11.57;6.25;;;;;;;14.81;65.83;99223.25;5036119;28;20076;-67
2022/05/11 03:37:52;;;;;;;12.00;7.63;;;;;;;14.82;65.76;99224.94;5033257;28;20033;-68
2022/05/11 03:40:17;;;;;;;12.90;7.65;;;;;;;14.77;65.92;99221.81;5033485;28;20103;-68
2022/05/11 03:42:43;;;;;;;9.77;6.30;;;;;;;14.72;66.11;99223.97;5020003;28;20494;-67
2022/05/11 03:45:14;;;;;;;10.10;8.30;;;;;;;14.71;66.27;99216.94;5035115;28;20088;-68
2022/05/11 03:47:39;;;;;;;15.85;6.97;;;;;;;14.63;66.60;99214.03;5052209;28;20029;-68
2022/05/11 03:50:06;;;;;;;11.75;6.68;;;;;;;14.58;67.07;99216.19;5034746;28;20043;-67
2022/05/11 03:52:31;;;;;;;9.73;6.80;;;;;;;14.52;66.71;99206.84;5052679;28;20039;-66
2022/05/11 03:54:57;;;;;;;8.27;7.07;;;;;;;14.49;66.87;99211.53;5034465;28;20032;-67
2022/05/11 03:57:25;;;;;;;11.02;7.65;;;;;;;14.41;67.56;99203.31;5033112;28;20040;-66
2022/05/11 03:59:51;;;;;;;9.80;7.75;;;;;;;14.32;68.20;99199.53;5045062;28;20368;-67
2022/05/11 04:02:16;;;;;;;10.23;6.97;;;;;;;14.32;67.75;99211.00;5033093;28;20029;-68
2022/05/11 04:04:42;;;;;;;10.98;7.20;;;;;;;14.29;68.09;99207.72;5031814;28;20068;-68
2022/05/11 04:07:08;;;;;;;9.15;7.47;;;;;;;14.20;68.49;99209.25;5018532;28;20039;-66
2022/05/11 04:09:33;;;;;;;11.68;7.03;;;;;;;14.11;68.73;99216.06;5031991;28;20562;-68
2022/05/11 04:11:59;;;;;;;12.63;7.20;;;;;;;14.08;68.96;99210.97;5015281;28;20120;-68
2022/05/11 04:14:24;;;;;;;9.38;7.60;;;;;;;14.02;69.35;99210.56;5019877;28;20087;-67
2022/05/11 04:16:54;;;;;;;10.07;7.05;;;;;;;14.00;69.31;99215.13;5031557;28;20041;-68
2022/05/11 04:19:20;;;;;;;8.80;6.50;;;;;;;13.94;69.29;99222.56;5032183;28;20034;-69
2022/05/11 04:21:45;;;;;;;9.45;7.43;;;;;;;13.96;69.41;99215.38;5032054;28;20567;-69
2022/05/11 04:24:10;;;;;;;8.45;6.32;;;;;;;13.93;69.69;99222.66;5032316;28;20037;-67
2022/05/11 04:26:36;;;;;;;13.73;6.97;;;;;;;13.85;70.40;99217.94;5031711;28;20033;-67
2022/05/11 04:29:01;;;;;;;11.27;7.15;;;;;;;13.81;70.15;99215.59;5031956;28;20029;-67
2022/05/11 04:31:27;;;;;;;10.98;7.20;;;;;;;13.73;70.16;99214.38;5032264;28;20155;-69
2022/05/11 04:33:52;;;;;;;10.32;7.53;;;;;;;13.69;70.28;99226.16;5031895;28;20038;-68
2022/05/11 04:36:17;;;;;;;8.95;7.43;;;;;;;13.64;70.80;99219.50;5033596;28;20067;-69
2022/05/11 04:38:43;;;;;;;9.20;6.60;;;;;;;13.65;70.38;99223.81;5030659;28;20053;-66
2022/05/11 04:41:08;;;;;;;10.40;6.68;;;;;;;13.63;71.26;99220.41;5035260;28;20099;-68
2022/05/11 04:43:34;;;;;;;11.10;6.97;;;;;;;13.64;70.37;99222.97;5034481;28;20107;-67
2022/05/11 04:45:59;;;;;;;7.65;6.85;;;;;;;13.67;70.00;99219.25;5034165;28;20033;-67
2022/05/11 04:48:25;;;;;;;9.63;6.85;;;;;;;13.69;70.32;99218.19;5034059;28;20044;-67
2022/05/11 04:50:51;;;;;;;9.95;6.07;;;;;;;13.74;69.65;99207.28;5034524;28;20410;-67
2022/05/11 04:53:18;;;;;;;12.10;7.63;;;;;;;13.78;70.14;99211.38;5015784;28;20041;-67
2022/05/11 04:55:45;;;;;;;11.30;6.53;;;;;;;13.84;69.92;99210.94;5014293;28;20503;-68
2022/05/11 04:58:10;;;;;;;12.50;7.32;;;;;;;13.92;69.85;99207.75;5031279;28;20034;-68
2022/05/11 05:00:36;;;;;;;12.23;6.93;;;;;;;14.00;69.12;99202.72;5013851;28;20751;-68
2022/05/11 05:03:05;;;;;;;9.38;7.22;;;;;;;14.12;68.78;99195.69;5031398;28;20049;-67
2022/05/11 05:05:30;;;;;;;9.93;7.13;;;;;;;14.23;68.45;99194.91;5014409;28;20040;-67
2022/05/11 05:07:55;;;;;;;11.18;6.63;;;;;;;14.32;67.69;99199.53;5030715;28;20037;-68
2022/05/11 05:10:21;;;;;;;9.02;6.25;;;;;;;14.41;67.41;99198.00;5031168;28;20037;-69
2022/05/11 05:12:47;;;;;;;11.60;7.18;;;;;;;14.48;66.85;99197.44;5031015;28;20037;-67
2022/05/11 05:15:15;;;;;;;9.57;6.40;;;;;;;14.59;66.67;99194.84;5034034;28;20053;-67
2022/05/11 05:17:41;;;;;;;12.15;7.75;;;;;;;14.68;66.31;99188.00;5034312;28;20041;-66
2022/05/11 05:20:07;;;;;;;12.10;7.32;;;;;;;14.79;65.92;99198.66;5034390;28;20033;-66
2022/05/11 05:22:34;;;;;;;12.80;7.38;;;;;;;14.93;65.81;99191.44;5033748;28;20442;-68
2022/05/11 05:25:00;;;;;;;9.43;7.78;;;;;;;15.06;65.40;99196.63;5030668;28;20041;-67
2022/05/11 05:27:25;;;;;;;9.68;6.60;;;;;;;15.18;64.95;99193.88;5012844;28;20037;-69
2022/05/11 05:32:37;;;;;;;10.05;6.72;;;;;;;15.43;64.27;99202.56;5030329;28;20036;-68
2022/05/11 05:35:04;;;;;;;10.77;6.00;;;;;;;15.56;63.98;99203.31;5033105;28;20029;-67
2022/05/11 05:37:30;;;;;;;17.75;8.30;;;;;;;15.70;63.92;99209.38;5032448;28;20376;-68
2022/05/11 05:39:55;;;;;;;9.85;6.45;;;;;;;15.77;63.94;99205.25;5012804;28;20044;-68
2022/05/11 05:42:23;;;;;;;14.18;7.43;;;;;;;15.88;63.76;99202.59;5030554;28;20753;-67
2022/05/11 05:44:48;;;;;;;10.65;7.88;;;;;;;15.98;63.73;99206.19;5030532;28;20061;-68
2022/05/11 05:47:15;;;;;;;21.92;7.68;;;;;;;16.11;63.28;99206.03;5029460;28;20049;-67
2022/05/11 05:49:40;;;;;;;17.38;7.90;;;;;;;16.23;63.48;99202.38;5030876;28;20044;-68
2022/05/11 05:52:07;;;;;;;12.75;7.10;;;;;;;16.34;63.13;99200.63;5030506;28;20041;-68
2022/05/11 05:54:35;;;;;;;8.15;5.85;;;;;;;16.49;60.83;99194.91;5029995;28;20487;-67
2022/05/11 05:57:00;;;;;;;6.63;5.03;;;;;;;16.62;60.25;99199.22;5029605;28;20045;-66
2022/05/11 05:59:26;;;;;;;11.90;6.25;;;;;;;16.72;59.48;99200.97;5029995;28;20545;-68
2022/05/11 06:01:51;;;;;;;10.10;4.40;;;;;;;16.85;59.04;99197.28;5030585;28;20120;-69
2022/05/11 06:04:17;;;;;;;10.70;6.32;;;;;;;16.98;58.54;99194.41;5031549;28;20098;-67
2022/05/11 06:06:42;;;;;;;11.38;6.18;;;;;;;17.15;58.63;99193.81;5032883;28;20072;-67
2022/05/11 06:09:09;;;;;;;14.73;5.90;;;;;;;17.38;58.37;99199.84;5030180;28;20129;-68
2022/05/11 06:11:35;;;;;;;22.40;6.15;;;;;;;17.45;59.21;99197.47;5030023;28;20109;-67
2022/05/11 06:14:01;;;;;;;13.57;7.15;;;;;;;17.69;58.26;99184.66;5030814;28;20045;-68
2022/05/11 06:16:26;;;;;;;9.45;5.53;;;;;;;17.86;56.12;99193.00;5029664;28;20166;-68
2022/05/11 06:18:53;;;;;;;6.03;4.72;;;;;;;18.00;55.71;99189.97;5028995;28;20033;-69
2022/05/11 06:21:19;;;;;;;7.20;4.47;;;;;;;18.18;54.98;99190.13;5029726;28;20076;-70
2022/05/11 06:23:45;;;;;;;7.90;4.97;;;;;;;18.38;54.36;99188.31;5029973;28;20092;-67
2022/05/11 06:26:12;;;;;;;9.40;5.20;;;;;;;18.49;54.09;99190.84;5029356;28;20037;-69
2022/05/11 06:28:40;;;;;;;6.00;3.88;;;;;;;18.67;53.86;99189.16;5028517;28;20049;-69
2022/05/11 06:31:06;;;;;;;10.63;5.85;;;;;;;18.78;53.63;99193.53;5029439;28;20033;-69
2022/05/11 06:33:33;;;;;;;8.30;4.35;;;;;;;18.91;54.51;99187.91;5028396;28;20041;-55
2022/05/11 06:35:59;;;;;;;9.63;4.05;;;;;;;19.11;53.61;99188.69;5031535;28;20038;-54
2022/05/11 06:38:24;;;;;;;15.23;4.78;;;;;;;19.33;52.28;99190.16;5027286;28;20041;-53
2022/05/11 06:40:49;;;;;;;8.05;4.57;;;;;;;19.58;51.85;99193.16;5029068;28;20103;-53
2022/05/11 06:43:15;;;;;;;9.60;5.13;;;;;;;19.82;50.88;99190.00;5029484;28;20552;-52
2022/05/11 06:45:41;;;;;;;7.25;4.47;;;;;;;20.05;50.14;99193.09;5030478;28;20037;-53
2022/05/11 06:48:07;;;;;;;12.27;4.78;;;;;;;20.26;49.35;99199.00;5029036;28;20033;-53
2022/05/11 06:50:33;;;;;;;10.77;5.20;;;;;;;20.45;49.21;99197.16;5026952;28;20061;-52
2022/05/11 06:53:08;;;;;;;9.68;4.55;;;;;;;20.59;48.35;99196.66;5029089;28;20423;-56
2022/05/11 07:01:01;;;;;;;6.13;4.68;;;;;;;20.84;48.24;99197.69;5023651;28;20124;-50
2022/05/11 07:03:27;;;;;;;12.43;5.05;;;;;;;20.88;48.97;99198.22;5028175;28;20113;-53
2022/05/11 07:05:52;;;;;;;8.63;4.78;;;;;;;20.90;48.80;99198.91;5027507;28;20076;-57
2022/05/11 07:08:18;;;;;;;8.57;4.30;;;;;;;20.94;49.09;99209.16;5027527;28;20068;-58
2022/05/11 07:12:17;;;;;;;6.75;4.78;;;;;;;20.98;48.87;99197.13;5004296;28;20048;-53
2022/05/11 07:13:28;;;;;;;;;;;;;;;21.02;48.79;99201.19;5024891;28;20138;-53
2022/05/11 07:15:54;;;;;;;8.60;4.73;;;;;;;21.01;48.63;99202.16;5030938;28;20235;-53
2022/05/11 07:18:19;;;;;;;5.80;4.85;;;;;;;21.14;48.57;99193.72;5040968;28;20941;-51
2022/05/11 07:20:44;;;;;;;15.38;6.47;;;;;;;21.31;48.23;99191.13;5022785;28;20047;-55
2022/05/11 07:23:10;;;;;;;11.30;5.25;;;;;;;21.47;47.89;99188.56;5026786;28;20064;-50
2022/05/11 07:25:35;;;;;;;12.35;5.22;;;;;;;21.68;47.40;99188.16;5024746;28;20033;-51
2022/05/11 07:28:01;;;;;;;7.80;4.85;;;;;;;21.91;46.44;99188.44;5028451;28;20067;-68
2022/05/11 07:30:34;;;;;;;6.78;4.93;;;;;;;22.13;45.83;99186.16;5023215;28;20697;-69
2022/05/11 07:33:00;;;;;;;8.27;4.63;;;;;;;22.37;45.21;99183.50;5024312;28;20041;-68
2022/05/11 07:35:26;;;;;;;28.35;9.35;;;;;;;22.58;44.51;99195.63;5024508;28;20037;-69
2022/05/11 07:37:53;;;;;;;6.63;4.88;;;;;;;22.86;43.68;99183.50;5024103;28;20075;-66
2022/05/11 07:40:20;;;;;;;20.77;7.03;;;;;;;23.13;42.83;99192.25;5022480;28;20044;-67
2022/05/11 07:42:45;;;;;;;8.20;4.32;;;;;;;23.02;42.88;99189.94;5023035;28;20052;-68
2022/05/11 07:45:16;;;;;;;8.23;5.07;;;;;;;23.33;41.85;99185.50;5024797;28;20071;-68
2022/05/11 07:47:43;;;;;;;10.20;5.50;;;;;;;23.41;41.47;99183.81;5023378;28;20529;-68
2022/05/11 07:50:13;;;;;;;14.75;6.07;;;;;;;23.43;41.76;99187.13;5024043;28;20053;-68
2022/05/11 07:52:38;;;;;;;10.27;5.00;;;;;;;23.33;41.89;99182.81;5024269;28;20129;-67
2022/05/11 07:55:04;;;;;;;11.02;5.38;;;;;;;23.46;41.36;99190.34;5023367;28;20037;-68
2022/05/11 08:00:13;;;;;;;13.40;4.40;;;;;;;24.14;40.36;99193.41;5022971;28;20064;-68
2022/05/11 08:02:41;;;;;;;12.23;5.93;;;;;;;24.63;39.53;99193.09;5023531;28;20702;-67
2022/05/11 08:05:13;;;;;;;14.32;5.72;;;;;;;24.94;38.61;99192.19;5017719;28;20144;-69
2022/05/11 08:07:50;;;;;;;7.15;5.05;;;;;;;25.12;37.73;99192.66;5021638;28;20033;-65
2022/05/11 08:10:23;;;;;;;9.52;5.45;;;;;;;25.35;37.14;99186.38;5023007;28;20034;-67
2022/05/11 08:12:49;;;;;;;7.47;4.70;;;;;;;25.39;37.26;99180.44;5018851;28;20121;-65
2022/05/11 08:15:16;;;;;;;11.77;5.05;;;;;;;25.21;37.19;99178.13;5029681;28;20615;-67
2022/05/11 08:17:44;;;;;;;7.15;5.15;;;;;;;25.00;37.61;99178.78;5033406;28;20045;-67
2022/05/11 08:20:16;;;;;;;8.50;4.63;;;;;;;24.75;37.59;99182.75;5033577;28;20044;-67
2022/05/11 08:22:44;;;;;;;12.32;5.43;;;;;;;24.43;38.36;99185.47;5044379;28;20033;-67
2022/05/11 08:25:11;;;;;;;12.23;4.75;;;;;;;24.31;39.01;99186.06;5053411;28;20041;-68
2022/05/11 08:27:37;;;;;;;10.10;5.28;;;;;;;24.28;39.01;99178.34;5050512;28;20029;-67
2022/05/11 08:35:33;;;;;;;8.23;5.45;;;;;;;24.16;39.43;99178.75;5053354;28;20082;-67
2022/05/11 08:37:59;;;;;;;18.83;5.60;;;;;;;24.17;39.79;99169.66;5052566;28;20061;-67
2022/05/11 08:40:38;;;;;;;9.95;5.30;;;;;;;24.16;39.47;99183.31;5053431;28;20052;-67
2022/05/11 08:43:12;;;;;;;11.27;5.05;;;;;;;24.05;39.66;99172.94;5040811;28;20142;-68
2022/05/11 08:45:44;;;;;;;7.78;4.80;;;;;;;23.99;39.63;99174.47;5054213;28;20029;-68
2022/05/11 08:48:18;;;;;;;18.88;5.90;;;;;;;24.04;39.61;99172.09;5034295;28;20029;-68
2022/05/11 08:50:46;;;;;;;10.05;6.05;;;;;;;24.05;39.42;99184.56;5053454;28;20049;-67
2022/05/11 08:53:35;;;;;;;9.00;5.43;;;;;;;24.01;39.51;99177.84;5035474;28;20041;-68
2022/05/11 08:56:06;;;;;;;12.65;5.65;;;;;;;24.00;39.65;99177.00;5052766;28;20504;-66
2022/05/11 08:58:37;;;;;;;10.63;5.28;;;;;;;24.03;39.83;99178.50;5052781;28;20491;-67
2022/05/11 09:01:07;;;;;;;5.25;4.45;;;;;;;24.12;39.38;99185.53;5053626;28;20068;-69
2022/05/11 09:03:41;;;;;;;11.60;5.70;;;;;;;24.12;39.56;99177.44;5052350;28;20041;-68
2022/05/11 09:06:27;;;;;;;11.15;6.00;;;;;;;24.21;39.60;99175.53;5052093;28;20178;-67
2022/05/11 09:08:57;;;;;;;7.40;5.07;;;;;;;24.61;39.18;99166.34;5051970;28;20036;-67
2022/05/11 09:11:25;;;;;;;15.80;5.20;;;;;;;24.81;38.34;99173.94;5053036;28;20039;-67
2022/05/11 09:13:50;;;;;;;10.50;6.38;;;;;;;24.97;38.13;99170.25;5052689;28;20043;-67
2022/05/11 09:16:23;;;;;;;14.55;4.95;;;;;;;25.38;37.42;99157.19;5034428;28;20034;-67
2022/05/11 09:18:48;;;;;;;12.15;6.03;;;;;;;25.99;36.14;99162.34;5034999;28;20053;-67
2022/05/11 09:21:29;;;;;;;15.15;4.75;;;;;;;26.67;35.24;99156.59;5053090;28;20049;-68
2022/05/11 09:24:08;;;;;;;7.85;5.30;;;;;;;27.18;34.00;99149.09;5050438;28;20050;-67
2022/05/11 09:26:37;;;;;;;14.25;5.25;;;;;;;27.81;33.39;99148.16;5049715;28;20029;-67
2022/05/11 09:29:35;;;;;;;6.57;4.13;;;;;;;28.66;32.16;99141.28;5050465;28;20029;-67
2022/05/11 09:32:31;;;;;;;5.55;4.03;;;;;;;29.24;31.16;99143.38;5015366;28;20037;-67
2022/05/11 09:35:16;;;;;;;13.73;5.03;;;;;;;29.66;30.11;99143.88;5030409;28;20091;-68
2022/05/11 09:37:44;;;;;;;8.60;4.75;;;;;;;30.07;29.78;99131.75;5030177;28;20034;-69
2022/05/11 09:40:14;;;;;;;6.00;4.35;;;;;;;30.36;29.20;99135.78;5035712;28;20025;-68
2022/05/11 09:42:50;;;;;;;7.85;4.85;;;;;;;30.57;28.35;99131.88;5050182;28;20029;-68
2022/05/11 09:45:39;;;;;;;16.90;5.40;;;;;;;30.53;28.84;99141.50;5031399;28;20167;-66
2022/05/11 09:48:23;;;;;;;10.65;4.85;;;;;;;30.63;28.73;99132.03;5029564;28;20039;-69
2022/05/11 09:50:55;;;;;;;11.82;5.90;;;;;;;30.73;28.37;99126.91;5050027;28;20033;-69
2022/05/11 09:53:33;;;;;;;9.18;4.78;;;;;;;30.83;28.25;99126.44;5050244;28;20033;-68
2022/05/11 09:56:17;;;;;;;9.20;3.67;;;;;;;31.08;27.91;99126.41;5049072;28;20040;-69
2022/05/11 09:58:42;;;;;;;8.73;4.93;;;;;;;31.18;27.65;99122.09;5050338;28;20029;-70
2022/05/11 10:01:22;;;;;;;7.95;4.55;;;;;;;31.71;27.12;99117.13;5050305;28;20040;-69
2022/05/11 10:03:51;;;;;;;7.38;4.60;;;;;;;31.79;27.37;99117.63;5049307;28;20047;-68
2022/05/11 10:06:18;;;;;;;6.03;4.72;;;;;;;31.97;26.87;99111.34;5049579;28;20041;-68
2022/05/11 10:08:45;;;;;;;7.25;4.35;;;;;;;32.01;26.58;99109.81;5033147;28;20858;-68
2022/05/11 10:11:22;;;;;;;10.27;4.88;;;;;;;31.86;26.85;99106.66;5046515;28;20037;-71
2022/05/11 10:21:50;;;;;;;10.40;4.18;;;;;;;32.19;26.49;99094.44;5049624;28;20066;-67
2022/05/11 10:22:27;;;;;;;7.28;3.67;;;;;;;32.38;26.27;99092.47;5049153;28;20083;-69
2022/05/11 10:25:06;;;;;;;20.77;5.38;;;;;;;32.15;26.62;99087.81;5049556;28;20041;-69
2022/05/11 10:27:46;;;;;;;7.10;4.57;;;;;;;32.40;25.96;99090.34;5048749;28;20033;-69
2022/05/11 10:30:20;;;;;;;9.80;4.25;;;;;;;32.55;25.82;99079.00;5049644;28;20052;-69
2022/05/11 10:33:09;;;;;;;10.30;3.92;;;;;;;32.41;26.30;99076.44;5049372;28;20044;-69
2022/05/11 10:35:46;;;;;;;5.07;3.40;;;;;;;32.58;26.33;99075.81;5042922;28;20042;-69
2022/05/11 10:38:37;;;;;;;16.88;5.15;;;;;;;32.02;27.09;99070.59;5018829;28;20566;-69
2022/05/11 10:41:57;;;;;;;8.52;4.18;;;;;;;32.06;26.98;99076.38;5041259;28;20037;-69
2022/05/11 10:44:47;;;;;;;8.80;4.28;;;;;;;31.91;26.91;99076.78;5003991;28;20051;-68
2022/05/11 10:47:40;;;;;;;6.18;3.72;;;;;;;31.78;27.05;99068.81;5028882;28;20064;-68
2022/05/11 10:50:16;;;;;;;8.60;4.22;;;;;;;31.17;28.22;99065.97;5029083;28;20041;-68
2022/05/11 10:53:12;;;;;;;6.43;4.30;;;;;;;30.74;28.94;99071.41;5029516;28;20041;-69
2022/05/11 10:55:45;;;;;;;11.60;3.60;;;;;;;30.16;29.77;99059.75;5011192;28;20037;-69
2022/05/11 10:58:42;;;;;;;6.40;3.72;;;;;;;29.50;30.08;99050.09;5030190;28;20402;-68
2022/05/11 11:01:12;;;;;;;7.32;3.35;;;;;;;29.21;31.47;99056.88;5012047;28;20772;-68
2022/05/11 11:04:05;;;;;;;13.38;4.20;;;;;;;28.60;31.52;99058.06;5029603;28;20388;-68
2022/05/11 11:09:48;;;;;;;9.63;5.25;;;;;;;28.18;32.61;99040.28;5050703;28;20039;-68
2022/05/11 11:12:27;;;;;;;24.88;5.22;;;;;;;28.07;31.73;99025.50;5050347;28;20029;-67
2022/05/11 11:14:55;;;;;;;9.82;4.18;;;;;;;27.82;31.96;99027.97;5050648;28;20043;-67
2022/05/11 11:17:23;;;;;;;9.15;4.20;;;;;;;27.76;32.75;99032.31;5049637;28;20029;-67
2022/05/11 11:19:52;;;;;;;10.70;4.05;;;;;;;27.91;32.84;99037.56;5050289;28;20043;-67
2022/05/11 11:22:18;;;;;;;5.30;3.83;;;;;;;27.91;32.70;99026.75;5047428;28;20705;-67
2022/05/11 11:25:12;;;;;;;4.95;3.92;;;;;;;27.80;32.53;99028.13;5029411;28;20042;-68
2022/05/11 11:28:02;;;;;;;10.63;3.30;;;;;;;27.68;32.81;99031.66;5028022;28;20439;-68
2022/05/11 11:30:28;;;;;;;8.35;4.20;;;;;;;27.53;32.73;99019.13;5029488;28;20028;-69
2022/05/11 11:33:10;;;;;;;6.72;3.30;;;;;;;27.64;32.97;99017.69;5029557;28;20029;-68
2022/05/11 11:35:40;;;;;;;14.40;4.03;;;;;;;27.62;32.76;99015.19;5028713;28;20121;-67
2022/05/11 11:38:06;;;;;;;9.60;3.78;;;;;;;27.53;32.76;99011.00;5027896;28;20049;-67
2022/05/11 11:40:33;;;;;;;5.38;3.75;;;;;;;27.58;32.32;99013.91;5029049;28;20146;-66
2022/05/11 11:43:38;;;;;;;7.88;3.63;;;;;;;27.43;33.40;99004.31;5029327;28;20040;-69
2022/05/11 11:45:47;;;;;;;6.60;3.35;;;;;;;27.44;33.26;99001.38;5028235;28;20218;-68
2022/05/11 11:48:25;;;;;;;5.38;3.95;;;;;;;27.59;33.16;98999.34;5028924;28;20123;-67
2022/05/11 11:50:54;;;;;;;13.88;3.72;;;;;;;27.50;32.84;99007.88;5014160;28;20048;-70
2022/05/11 11:53:52;;;;;;;7.57;3.42;;;;;;;27.47;32.24;99001.00;5010483;28;20125;-66
2022/05/11 11:56:23;;;;;;;9.80;3.60;;;;;;;27.48;32.69;98991.81;5008586;28;20041;-68
2022/05/11 11:59:11;;;;;;;8.45;3.75;;;;;;;27.53;33.42;98992.03;5027680;28;20041;-69
2022/05/11 12:01:46;;;;;;;6.20;3.92;;;;;;;27.60;32.88;98992.88;5026897;28;20062;-68
2022/05/11 12:04:19;;;;;;;13.95;4.53;;;;;;;27.51;32.46;98996.81;5027901;28;20033;-69
2022/05/11 12:15:26;;;;;;;9.73;4.03;;;;;;;27.48;32.10;98980.16;5047840;28;20048;-68
2022/05/11 12:17:52;;;;;;;8.40;3.20;;;;;;;27.39;31.84;98988.47;5047886;28;20036;-67
2022/05/11 12:20:20;;;;;;;8.60;3.65;;;;;;;27.45;31.38;98986.81;5048004;28;20037;-68
2022/05/11 12:22:51;;;;;;;7.22;3.70;;;;;;;27.47;30.65;98984.75;5048266;28;20098;-69